Time;durP1;ratioP1;P1;durP2;ratioP2;P2;SDS_P1;SDS_P2;PMS_P1;PMS_P2;Temp;Humidity;BMP_temperature;BMP_pressure;BME280_temperature;BME280_humidity;BME280_pressure;Samples;Min_cycle;Max_cycle;Signal;HPM_P1;HPM_P2
2023/08/30 00:01:56;;;;;;;;;;;;;;;17.52;100.00;98559.00;4957758;29;19929;-79
2023/08/30 00:04:22;;;;;;;;;;;;;;;17.31;100.00;98551.28;4956775;29;19923;-78
2023/08/30 00:06:47;;;;;;;;;;;;;;;17.30;100.00;98552.31;4956428;28;19969;-79
2023/08/30 00:09:13;;;;;;;;;;;;;;;17.33;100.00;98546.53;4955566;29;19961;-78
2023/08/30 00:11:38;;;;;;;;;;;;;;;17.35;100.00;98557.81;4956340;29;19929;-78
2023/08/30 00:14:07;;;;;;;;;;;;;;;17.38;100.00;98561.91;4956480;28;19922;-79
2023/08/30 00:16:33;;;;;;;;;;;;;;;17.38;100.00;98562.72;4956719;29;19962;-79
2023/08/30 00:18:59;;;;;;;;;;;;;;;17.34;100.00;98556.19;4956022;28;19922;-79
2023/08/30 00:21:25;;;;;;;;;;;;;;;17.28;100.00;98557.03;4956292;28;20013;-80
2023/08/30 00:23:51;;;;;;;;;;;;;;;17.13;100.00;98575.13;4956394;29;19981;-79
2023/08/30 00:26:16;;;;;;;;;;;;;;;17.11;100.00;98558.50;4954082;29;20331;-79
2023/08/30 00:28:42;;;;;;;;;;;;;;;17.00;100.00;98559.97;4954023;29;19918;-80
2023/08/30 00:31:07;;;;;;;;;;;;;;;17.03;100.00;98561.38;4953540;29;19922;-80
2023/08/30 00:33:34;;;;;;;;;;;;;;;17.02;100.00;98557.09;4949484;29;20202;-79
2023/08/30 00:36:00;;;;;;;;;;;;;;;17.03;100.00;98558.72;4953876;28;20429;-80
2023/08/30 00:38:27;;;;;;;;;;;;;;;16.87;100.00;98559.97;4953845;28;19930;-79
2023/08/30 00:40:53;;;;;;;;;;;;;;;16.89;100.00;98546.47;4953840;28;19922;-79
2023/08/30 00:43:19;;;;;;;;;;;;;;;16.85;100.00;98546.03;4952120;28;20287;-79
2023/08/30 00:45:44;;;;;;;;;;;;;;;16.89;100.00;98557.13;4953969;28;20356;-78
2023/08/30 00:48:10;;;;;;;;;;;;;;;16.93;100.00;98550.34;4953809;29;19966;-79
2023/08/30 00:50:36;;;;;;;;;;;;;;;16.95;100.00;98550.97;4953800;29;20335;-78
2023/08/30 00:53:05;;;;;;;;;;;;;;;16.97;100.00;98559.53;4953369;29;19933;-76
2023/08/30 00:55:33;;;;;;;;;;;;;;;16.89;100.00;98557.94;4953471;28;19922;-78
2023/08/30 00:57:59;;;;;;;;;;;;;;;16.91;100.00;98555.88;4949473;28;19926;-78
2023/08/30 01:00:24;;;;;;;;;;;;;;;16.75;100.00;98551.78;4951932;29;20558;-78
2023/08/30 01:02:50;;;;;;;;;;;;;;;16.68;100.00;98552.81;4952050;29;20401;-78
2023/08/30 01:05:16;;;;;;;;;;;;;;;16.68;100.00;98550.97;4955296;28;19933;-78
2023/08/30 01:07:42;;;;;;;;;;;;;;;16.70;100.00;98554.25;4952967;28;19918;-78
2023/08/30 01:10:08;;;;;;;;;;;;;;;16.70;100.00;98554.25;4954078;29;19922;-78
2023/08/30 01:12:36;;;;;;;;;;;;;;;16.65;100.00;98556.72;4953253;29;19927;-78
2023/08/30 01:15:08;;;;;;;;;;;;;;;16.58;100.00;98561.19;4953634;28;19922;-78
2023/08/30 01:17:35;;;;;;;;;;;;;;;16.50;100.00;98556.06;4954086;28;19934;-77
2023/08/30 01:20:07;;;;;;;;;;;;;;;16.49;100.00;98553.63;4953621;28;20033;-78
2023/08/30 01:22:33;;;;;;;;;;;;;;;16.53;100.00;98552.19;4952790;29;20314;-78
2023/08/30 01:25:11;;;;;;;;;;;;;;;16.58;100.00;98550.53;4953510;28;20320;-78
2023/08/30 01:27:37;;;;;;;;;;;;;;;16.62;100.00;98562.44;4953409;28;20067;-77
2023/08/30 01:30:05;;;;;;;;;;;;;;;16.64;100.00;98560.41;4936446;29;21442;-78
2023/08/30 01:32:33;;;;;;;;;;;;;;;16.60;100.00;98559.19;4954386;29;20269;-78
2023/08/30 01:34:59;;;;;;;;;;;;;;;16.56;100.00;98557.91;4953610;29;20303;-78
2023/08/30 01:37:25;;;;;;;;;;;;;;;16.45;100.00;98558.53;4954244;28;19959;-78
2023/08/30 01:39:52;;;;;;;;;;;;;;;16.38;100.00;98560.34;4953438;29;20375;-77
2023/08/30 01:42:21;;;;;;;;;;;;;;;16.36;100.00;98557.09;4952807;29;19923;-77
2023/08/30 01:44:48;;;;;;;;;;;;;;;16.40;100.00;98558.31;4953395;29;19922;-77
2023/08/30 01:47:15;;;;;;;;;;;;;;;16.39;100.00;98554.84;4949301;28;19923;-76
2023/08/30 01:49:41;;;;;;;;;;;;;;;16.39;100.00;98556.69;4945979;29;20276;-77
2023/08/30 01:52:07;;;;;;;;;;;;;;;16.36;100.00;98551.78;4942419;29;19970;-78
2023/08/30 01:54:32;;;;;;;;;;;;;;;16.44;100.00;98556.88;4945335;28;19941;-78
2023/08/30 01:56:58;;;;;;;;;;;;;;;16.47;100.00;98551.16;4933757;29;20065;-79
2023/08/30 01:59:24;;;;;;;;;;;;;;;16.42;100.00;98556.28;4934396;29;19923;-78
2023/08/30 02:01:51;;;;;;;;;;;;;;;16.51;100.00;98555.06;4951350;28;20013;-79
2023/08/30 02:04:16;;;;;;;;;;;;;;;16.51;100.00;98552.38;4942836;28;20376;-79
2023/08/30 02:07:02;;;;;;;;;;;;;;;16.42;100.00;98558.94;4950657;28;20311;-81
2023/08/30 02:09:29;;;;;;;;;;;;;;;16.42;100.00;98561.63;4956042;28;19929;-79
2023/08/30 02:11:58;;;;;;;;;;;;;;;16.43;100.00;98557.94;4956671;29;20016;-78
2023/08/30 02:14:26;;;;;;;;;;;;;;;16.41;100.00;98561.81;4953917;29;19923;-77
2023/08/30 02:16:52;;;;;;;;;;;;;;;16.48;100.00;98557.31;4948183;28;20299;-76
2023/08/30 02:19:20;;;;;;;;;;;;;;;16.46;100.00;98554.84;4952519;28;19923;-77
2023/08/30 02:21:47;;;;;;;;;;;;;;;16.40;100.00;98555.66;4955103;29;19929;-77
2023/08/30 02:24:13;;;;;;;;;;;;;;;16.33;100.00;98554.84;4945708;28;19922;-78
2023/08/30 02:26:39;;;;;;;;;;;;;;;16.25;100.00;98557.72;4949022;29;20009;-79
2023/08/30 02:29:05;;;;;;;;;;;;;;;16.23;100.00;98554.41;4935700;29;19929;-79
2023/08/30 02:31:31;;;;;;;;;;;;;;;16.03;100.00;98550.91;4954689;29;20287;-79
2023/08/30 02:33:56;;;;;;;;;;;;;;;16.05;100.00;98548.88;4947277;29;19934;-78
2023/08/30 02:36:22;;;;;;;;;;;;;;;15.97;100.00;98552.53;4951468;28;19966;-78
2023/08/30 02:38:48;;;;;;;;;;;;;;;15.94;100.00;98559.09;4956816;29;20021;-78
2023/08/30 02:41:14;;;;;;;;;;;;;;;15.94;100.00;98545.78;4956888;29;19958;-78
2023/08/30 02:43:39;;;;;;;;;;;;;;;15.97;100.00;98553.34;4955908;29;19923;-79
2023/08/30 02:46:05;;;;;;;;;;;;;;;16.02;100.00;98557.25;4956039;29;19922;-78
2023/08/30 02:48:31;;;;;;;;;;;;;;;15.92;100.00;98555.78;4954908;29;19973;-79
2023/08/30 02:50:57;;;;;;;;;;;;;;;15.90;100.00;98563.13;4955489;29;19923;-79
2023/08/30 02:53:23;;;;;;;;;;;;;;;15.87;100.00;98557.41;4955782;29;19945;-78
2023/08/30 02:55:48;;;;;;;;;;;;;;;15.88;100.00;98559.88;4955840;29;19973;-79
2023/08/30 02:58:13;;;;;;;;;;;;;;;15.85;100.00;98560.25;4950272;29;19977;-79
2023/08/30 03:00:39;;;;;;;;;;;;;;;15.75;100.00;98559.00;4947664;29;19919;-77
2023/08/30 03:03:06;;;;;;;;;;;;;;;15.78;100.00;98564.78;4950593;29;19927;-79
2023/08/30 03:05:31;;;;;;;;;;;;;;;15.72;100.00;98560.25;4953537;29;19969;-78
2023/08/30 03:07:57;;;;;;;;;;;;;;;15.69;100.00;98565.94;4955889;28;19930;-79
2023/08/30 03:10:22;;;;;;;;;;;;;;;15.69;100.00;98571.28;4952016;28;19930;-78
2023/08/30 03:12:48;;;;;;;;;;;;;;;15.75;100.00;98570.47;4946426;29;19929;-79
2023/08/30 03:15:13;;;;;;;;;;;;;;;15.76;100.00;98566.81;4950230;29;19927;-80
2023/08/30 03:17:39;;;;;;;;;;;;;;;15.69;100.00;98565.94;4947137;29;19923;-79
2023/08/30 03:20:05;;;;;;;;;;;;;;;15.64;100.00;98568.38;4943500;28;19927;-79
2023/08/30 03:22:31;;;;;;;;;;;;;;;15.66;100.00;98566.38;4954123;29;19933;-79
2023/08/30 03:24:56;;;;;;;;;;;;;;;15.66;100.00;98561.03;4955036;29;19923;-79
2023/08/30 03:27:21;;;;;;;;;;;;;;;15.68;100.00;98566.97;4951807;28;19926;-79
2023/08/30 03:29:47;;;;;;;;;;;;;;;15.61;100.00;98566.13;4952908;29;19922;-79
2023/08/30 03:32:19;;;;;;;;;;;;;;;15.56;100.00;98557.91;4950262;29;19923;-79
2023/08/30 03:34:47;;;;;;;;;;;;;;;15.50;100.00;98556.03;4954947;29;19918;-79
2023/08/30 03:37:16;;;;;;;;;;;;;;;15.55;100.00;98558.97;4937383;29;20183;-78
2023/08/30 03:39:42;;;;;;;;;;;;;;;15.60;100.00;98551.19;4950157;29;19925;-78
2023/08/30 03:42:07;;;;;;;;;;;;;;;15.51;100.00;98553.16;4943058;29;19923;-78
2023/08/30 03:44:33;;;;;;;;;;;;;;;15.48;100.00;98545.59;4945810;29;19968;-79
2023/08/30 03:46:58;;;;;;;;;;;;;;;15.49;100.00;98541.09;4992281;23;19926;-70
2023/08/30 03:49:23;;;;;;;;;;;;;;;15.58;100.00;98542.59;4948369;28;19963;-71
2023/08/30 03:51:49;;;;;;;;;;;;;;;15.60;100.00;98543.22;4973864;28;19926;-71
2023/08/30 03:54:16;;;;;;;;;;;;;;;15.63;100.00;98550.78;4973428;28;20502;-71
2023/08/30 03:56:45;;;;;;;;;;;;;;;15.60;100.00;98555.69;4973865;28;19929;-71
2023/08/30 03:59:11;;;;;;;;;;;;;;;15.57;100.00;98552.41;4968352;28;19922;-71
2023/08/30 04:01:37;;;;;;;;;;;;;;;15.54;100.00;98547.50;4971919;28;20005;-70
2023/08/30 04:04:04;;;;;;;;;;;;;;;15.51;100.00;98562.97;4971418;28;20033;-70
2023/08/30 04:06:30;;;;;;;;;;;;;;;15.40;100.00;98560.88;4972252;28;19933;-71
2023/08/30 04:08:55;;;;;;;;;;;;;;;15.35;100.00;98560.66;4973217;28;19930;-71
2023/08/30 04:11:20;;;;;;;;;;;;;;;15.25;100.00;98562.88;4973388;28;19926;-72
2023/08/30 04:13:46;;;;;;;;;;;;;;;15.18;100.00;98559.34;4973461;28;19922;-70
2023/08/30 04:16:11;;;;;;;;;;;;;;;15.12;100.00;98569.75;4973135;28;20268;-70
2023/08/30 04:18:36;;;;;;;;;;;;;;;15.15;100.00;98569.34;4969359;28;19922;-70
2023/08/30 04:21:02;;;;;;;;;;;;;;;15.27;100.00;98566.13;4972949;28;19929;-70
2023/08/30 04:23:30;;;;;;;;;;;;;;;15.33;100.00;98582.13;4973119;28;19957;-71
2023/08/30 04:25:55;;;;;;;;;;;;;;;15.36;100.00;98583.56;4973221;28;19922;-72
2023/08/30 04:28:21;;;;;;;;;;;;;;;15.38;100.00;98586.84;4973239;28;20028;-71
2023/08/30 04:30:47;;;;;;;;;;;;;;;15.44;100.00;98589.53;4971712;28;20294;-71
2023/08/30 04:33:12;;;;;;;;;;;;;;;15.42;100.00;98585.44;4970223;28;19923;-71
2023/08/30 04:35:38;;;;;;;;;;;;;;;15.43;100.00;98592.41;4972944;28;19930;-72
2023/08/30 04:38:04;;;;;;;;;;;;;;;15.44;100.00;98589.53;4971234;28;19946;-72
2023/08/30 04:40:30;;;;;;;;;;;;;;;15.49;100.00;98588.97;4971646;28;19933;-71
2023/08/30 04:42:56;;;;;;;;;;;;;;;15.50;100.00;98585.25;4971531;28;19922;-72
2023/08/30 04:45:21;;;;;;;;;;;;;;;15.46;100.00;98586.69;4971441;28;19926;-71
2023/08/30 04:47:47;;;;;;;;;;;;;;;15.42;100.00;98588.09;4972262;28;19957;-71
2023/08/30 04:50:13;;;;;;;;;;;;;;;15.37;100.00;98586.03;4972582;28;19922;-72
2023/08/30 04:52:38;;;;;;;;;;;;;;;15.29;100.00;98596.00;4967638;28;19926;-71
2023/08/30 04:55:04;;;;;;;;;;;;;;;15.26;100.00;98596.38;4979311;28;19922;-72
2023/08/30 04:57:30;;;;;;;;;;;;;;;15.27;100.00;98603.34;4971522;28;19973;-72
2023/08/30 04:59:55;;;;;;;;;;;;;;;15.18;100.00;98599.22;4971305;28;19929;-72
2023/08/30 05:02:21;;;;;;;;;;;;;;;15.16;100.00;98591.44;4954920;28;19938;-72
2023/08/30 05:05:02;;;;;;;;;;;;;;;15.09;100.00;98590.56;4971010;28;19927;-72
2023/08/30 05:07:27;;;;;;;;;;;;;;;15.05;100.00;98598.13;4972516;28;20284;-71
2023/08/30 05:09:53;;;;;;;;;;;;;;;15.05;100.00;98591.97;4971283;28;19928;-72
2023/08/30 05:12:18;;;;;;;;;;;;;;;15.02;100.00;98601.13;4971221;28;19929;-72
2023/08/30 05:14:45;;;;;;;;;;;;;;;15.02;100.00;98595.81;4971482;28;19922;-72
2023/08/30 05:17:10;;;;;;;;;;;;;;;15.14;100.00;98598.75;4970769;28;20291;-71
2023/08/30 05:19:36;;;;;;;;;;;;;;;15.13;100.00;98597.16;4971070;28;19922;-70
2023/08/30 05:22:03;;;;;;;;;;;;;;;14.98;100.00;98594.59;4970834;28;19938;-72
2023/08/30 05:24:29;;;;;;;;;;;;;;;14.93;100.00;98597.00;4972641;28;19922;-71
2023/08/30 05:26:54;;;;;;;;;;;;;;;14.92;100.00;98599.84;4971123;28;19922;-72
2023/08/30 05:29:21;;;;;;;;;;;;;;;14.99;100.00;98598.88;4971070;28;19926;-71
2023/08/30 05:31:46;;;;;;;;;;;;;;;15.01;100.00;98596.88;4971265;28;19929;-71
2023/08/30 05:34:31;;;;;;;;;;;;;;;15.02;100.00;98601.13;4972356;28;19934;-71
2023/08/30 05:37:05;;;;;;;;;;;;;;;15.04;100.00;98599.13;4972216;28;19923;-70
2023/08/30 05:39:52;;;;;;;;;;;;;;;15.11;100.00;98605.31;4969054;28;19969;-72
2023/08/30 05:42:17;;;;;;;;;;;;;;;15.05;100.00;98600.78;4972063;28;19957;-72
2023/08/30 05:44:42;;;;;;;;;;;;;;;15.14;100.00;98604.91;4973935;28;19922;-71
2023/08/30 05:47:08;;;;;;;;;;;;;;;15.21;100.00;98604.13;4974010;28;19922;-71
2023/08/30 05:49:34;;;;;;;;;;;;;;;15.15;100.00;98606.53;4974701;28;20512;-71
2023/08/30 05:52:00;;;;;;;;;;;;;;;15.12;100.00;98603.47;4975644;28;19976;-71
2023/08/30 05:54:29;;;;;;;;;;;;;;;15.23;100.00;98604.75;4982824;28;19922;-72
2023/08/30 05:56:55;;;;;;;;;;;;;;;15.29;100.00;98609.28;4974612;28;19945;-71
2023/08/30 05:59:21;;;;;;;;;;;;;;;15.28;100.00;98605.00;4974586;28;20383;-72
2023/08/30 06:01:46;;;;;;;;;;;;;;;15.34;100.00;98598.88;4976001;28;19922;-71
2023/08/30 06:04:11;;;;;;;;;;;;;;;15.32;100.00;98608.88;4975110;28;19928;-72
2023/08/30 06:06:37;;;;;;;;;;;;;;;15.34;100.00;98615.66;4974303;28;20343;-71
2023/08/30 06:09:03;;;;;;;;;;;;;;;15.32;100.00;98617.69;4975256;28;20334;-72
2023/08/30 06:11:28;;;;;;;;;;;;;;;15.34;100.00;98620.97;4975745;28;19928;-71
2023/08/30 06:13:54;;;;;;;;;;;;;;;15.48;100.00;98612.06;4975565;28;20290;-73
2023/08/30 06:16:20;;;;;;;;;;;;;;;15.61;100.00;98621.97;4975464;28;19925;-72
2023/08/30 06:18:45;;;;;;;;;;;;;;;15.73;100.00;98624.88;4973887;28;19922;-72
2023/08/30 06:21:10;;;;;;;;;;;;;;;15.85;100.00;98623.28;4973875;28;20012;-72
2023/08/30 06:23:37;;;;;;;;;;;;;;;16.01;100.00;98632.78;4975236;28;19929;-71
2023/08/30 06:26:03;;;;;;;;;;;;;;;16.10;100.00;98637.72;4975180;28;19946;-70
2023/08/30 06:28:28;;;;;;;;;;;;;;;16.22;100.00;98635.28;4975222;28;19922;-71
2023/08/30 06:30:53;;;;;;;;;;;;;;;16.31;100.00;98639.44;4974293;28;19968;-72
2023/08/30 06:33:19;;;;;;;;;;;;;;;16.40;100.00;98632.88;4973542;28;19926;-73
2023/08/30 06:35:47;;;;;;;;;;;;;;;16.45;100.00;98634.94;4974000;28;19922;-72
2023/08/30 06:38:12;;;;;;;;;;;;;;;16.52;100.00;98636.59;4974764;28;19922;-72
2023/08/30 06:40:42;;;;;;;;;;;;;;;16.59;100.00;98641.91;4975098;28;20269;-73
2023/08/30 06:43:08;;;;;;;;;;;;;;;16.60;100.00;98639.09;4957148;28;19930;-72
2023/08/30 06:45:33;;;;;;;;;;;;;;;16.59;100.00;98631.28;4974952;28;19926;-72
2023/08/30 06:47:59;;;;;;;;;;;;;;;16.56;100.00;98637.81;4974484;28;20521;-72
2023/08/30 06:50:24;;;;;;;;;;;;;;;16.60;100.00;98636.44;4974485;28;20419;-72
2023/08/30 06:52:49;;;;;;;;;;;;;;;16.76;100.00;98636.03;4974323;28;19930;-72
2023/08/30 06:55:15;;;;;;;;;;;;;;;16.82;100.00;98641.56;4972923;28;19929;-72
2023/08/30 06:57:40;;;;;;;;;;;;;;;16.95;100.00;98646.91;4974409;28;19926;-72
2023/08/30 07:00:08;;;;;;;;;;;;;;;17.02;100.00;98642.38;4974057;28;19976;-72
2023/08/30 07:02:37;;;;;;;;;;;;;;;17.10;100.00;98647.50;4971091;28;20085;-71
2023/08/30 07:05:04;;;;;;;;;;;;;;;17.20;100.00;98645.22;4975105;28;20002;-74
2023/08/30 07:07:29;;;;;;;;;;;;;;;17.26;100.00;98643.59;4972980;28;19995;-73
2023/08/30 07:09:54;;;;;;;;;;;;;;;17.40;100.00;98646.03;4970637;28;19926;-71
2023/08/30 07:12:20;;;;;;;;;;;;;;;17.52;100.00;98656.88;4967338;28;19961;-72
2023/08/30 07:14:45;;;;;;;;;;;;;;;17.64;100.00;98659.75;4973446;28;20009;-72
2023/08/30 07:17:11;;;;;;;;;;;;;;;17.75;100.00;98661.75;4973799;28;20391;-73
2023/08/30 07:19:36;;;;;;;;;;;;;;;17.84;100.00;98657.84;4973504;28;19926;-74
2023/08/30 07:22:02;;;;;;;;;;;;;;;17.92;100.00;98660.25;4974972;28;19922;-73
2023/08/30 07:24:28;;;;;;;;;;;;;;;18.03;100.00;98656.91;4973580;28;19926;-71
2023/08/30 07:26:54;;;;;;;;;;;;;;;18.10;100.00;98660.38;4971713;28;19928;-72
2023/08/30 07:29:19;;;;;;;;;;;;;;;18.20;100.00;98668.75;4973341;28;20252;-72
2023/08/30 07:31:46;;;;;;;;;;;;;;;18.21;100.00;98673.06;4967535;28;19978;-72
2023/08/30 07:34:12;;;;;;;;;;;;;;;18.31;100.00;98670.78;4973976;28;19922;-72
2023/08/30 07:36:38;;;;;;;;;;;;;;;18.43;100.00;98678.94;4974852;28;19922;-74
2023/08/30 07:39:03;;;;;;;;;;;;;;;18.52;100.00;98672.28;4973307;28;19926;-72
2023/08/30 07:41:28;;;;;;;;;;;;;;;18.60;100.00;98664.06;4974631;28;20283;-72
2023/08/30 07:43:54;;;;;;;;;;;;;;;18.69;100.00;98670.78;4973206;28;19922;-74
2023/08/30 07:46:20;;;;;;;;;;;;;;;18.77;100.00;98664.34;4970428;28;19926;-73
2023/08/30 07:48:45;;;;;;;;;;;;;;;18.85;100.00;98661.38;4970058;28;19926;-72
2023/08/30 07:51:11;;;;;;;;;;;;;;;18.93;100.00;98660.31;4971804;28;20130;-72
2023/08/30 07:53:36;;;;;;;;;;;;;;;18.95;100.00;98661.75;4972774;28;20365;-72
2023/08/30 07:56:02;;;;;;;;;;;;;;;19.04;100.00;98665.78;4973086;28;20395;-73
2023/08/30 07:58:28;;;;;;;;;;;;;;;19.09;100.00;98673.94;4972822;28;19922;-73
2023/08/30 08:00:53;;;;;;;;;;;;;;;19.18;100.00;98675.31;4973653;28;19929;-71
2023/08/30 08:03:20;;;;;;;;;;;;;;;19.27;100.00;98677.72;4974073;28;19949;-73
2023/08/30 08:05:46;;;;;;;;;;;;;;;19.34;100.00;98684.63;4973502;28;19930;-72
2023/08/30 08:08:12;;;;;;;;;;;;;;;19.38;100.00;98682.38;4973212;28;19923;-72
2023/08/30 08:10:37;;;;;;;;;;;;;;;19.48;100.00;98690.72;4973532;28;19922;-70
2023/08/30 08:13:06;;;;;;;;;;;;;;;19.55;100.00;98683.47;4973720;28;19922;-72
2023/08/30 08:15:32;;;;;;;;;;;;;;;19.66;100.00;98689.94;4972909;28;20249;-76
2023/08/30 08:17:58;;;;;;;;;;;;;;;19.74;100.00;98698.47;4972645;28;20378;-75
2023/08/30 08:20:23;;;;;;;;;;;;;;;19.80;100.00;98696.75;4974031;28;19922;-74
2023/08/30 08:22:48;;;;;;;;;;;;;;;19.85;100.00;98700.41;4972407;28;20386;-76
2023/08/30 08:25:15;;;;;;;;;;;;;;;19.88;100.00;98697.31;4973690;28;19930;-75
2023/08/30 08:27:41;;;;;;;;;;;;;;;19.92;100.00;98701.16;4967809;28;20371;-76
2023/08/30 08:30:07;;;;;;;;;;;;;;;19.97;100.00;98709.34;4973631;28;20002;-75
2023/08/30 08:32:33;;;;;;;;;;;;;;;20.06;100.00;98706.38;4972608;28;20353;-73
2023/08/30 08:34:58;;;;;;;;;;;;;;;20.13;100.00;98709.78;4973451;28;20375;-73
2023/08/30 08:37:24;;;;;;;;;;;;;;;20.22;100.00;98705.75;4987103;28;19929;-72
2023/08/30 08:39:50;;;;;;;;;;;;;;;20.28;100.00;98704.84;4973551;28;19933;-73
2023/08/30 08:42:19;;;;;;;;;;;;;;;20.33;100.00;98702.34;4972427;28;19922;-74
2023/08/30 08:44:50;;;;;;;;;;;;;;;20.36;100.00;98702.72;4973759;28;20411;-74
2023/08/30 08:47:19;;;;;;;;;;;;;;;20.46;100.00;98715.56;4965626;28;19932;-74
2023/08/30 08:49:45;;;;;;;;;;;;;;;20.54;100.00;98704.56;4970795;28;20294;-75
2023/08/30 08:52:11;;;;;;;;;;;;;;;20.63;100.00;98703.16;4970121;28;20005;-75
2023/08/30 08:54:39;;;;;;;;;;;;;;;20.69;100.00;98710.31;4972754;28;19929;-72
2023/08/30 08:57:06;;;;;;;;;;;;;;;20.74;100.00;98699.72;4972063;28;20379;-74
2023/08/30 08:59:31;;;;;;;;;;;;;;;20.77;94.10;98704.63;4972591;28;19929;-73
2023/08/30 09:01:56;;;;;;;;;;;;;;;20.84;88.81;98709.91;4972458;28;19922;-72
2023/08/30 09:04:22;;;;;;;;;;;;;;;20.89;93.39;98707.34;4972762;28;19922;-73
2023/08/30 09:06:48;;;;;;;;;;;;;;;20.97;94.65;98708.88;4971868;28;19980;-72
2023/08/30 09:09:14;;;;;;;;;;;;;;;21.03;88.38;98708.75;4972753;28;20524;-71
2023/08/30 09:11:40;;;;;;;;;;;;;;;21.09;89.04;98701.66;4972574;28;20318;-72
2023/08/30 09:14:05;;;;;;;;;;;;;;;21.14;86.14;98699.13;4971675;28;19930;-73
2023/08/30 09:16:31;;;;;;;;;;;;;;;21.18;88.27;98706.50;4970887;28;19930;-72
2023/08/30 09:18:57;;;;;;;;;;;;;;;21.23;89.88;98705.78;4971576;28;19922;-72
2023/08/30 09:21:23;;;;;;;;;;;;;;;21.27;91.02;98706.97;4971640;28;19945;-71
2023/08/30 09:23:56;;;;;;;;;;;;;;;21.32;87.00;98717.84;4967926;28;19922;-72
2023/08/30 09:26:21;;;;;;;;;;;;;;;21.36;85.46;98712.81;4971940;28;19937;-72
2023/08/30 09:28:47;;;;;;;;;;;;;;;21.39;86.21;98713.16;4971533;28;19926;-73
2023/08/30 09:31:17;;;;;;;;;;;;;;;21.44;84.71;98710.59;4970949;28;19930;-73
2023/08/30 09:33:44;;;;;;;;;;;;;;;21.49;87.00;98712.59;4971588;28;19929;-72
2023/08/30 09:36:11;;;;;;;;;;;;;;;21.56;83.59;98716.78;4971278;28;19926;-71
2023/08/30 09:38:36;;;;;;;;;;;;;;;21.62;84.45;98704.28;4971357;28;20009;-72
2023/08/30 09:41:02;;;;;;;;;;;;;;;21.68;85.00;98706.03;4971362;28;20350;-72
2023/08/30 09:43:28;;;;;;;;;;;;;;;21.79;84.14;98712.47;4971276;28;19985;-72
2023/08/30 09:45:53;;;;;;;;;;;;;;;21.86;82.85;98713.13;4970145;28;19957;-72
2023/08/30 09:48:22;;;;;;;;;;;;;;;21.88;81.41;98716.41;4971119;28;20363;-72
2023/08/30 09:50:50;;;;;;;;;;;;;;;21.90;81.85;98712.44;4971886;28;19922;-71
2023/08/30 09:53:17;;;;;;;;;;;;;;;21.96;83.94;98714.22;4971236;28;20322;-72
2023/08/30 09:55:43;;;;;;;;;;;;;;;22.04;81.44;98710.34;4967781;28;19929;-70
2023/08/30 09:58:09;;;;;;;;;;;;;;;22.10;81.32;98708.56;4971277;28;19922;-72
2023/08/30 10:00:35;;;;;;;;;;;;;;;22.15;82.23;98706.81;4971314;28;19969;-72
2023/08/30 10:03:01;;;;;;;;;;;;;;;22.17;82.12;98710.06;4971096;28;19922;-72
2023/08/30 10:05:26;;;;;;;;;;;;;;;22.18;83.44;98700.97;4971327;28;19929;-71
2023/08/30 10:07:55;;;;;;;;;;;;;;;22.24;83.63;98693.81;4971152;28;19918;-73
2023/08/30 10:10:21;;;;;;;;;;;;;;;22.27;85.27;98706.75;4969866;28;19926;-71
2023/08/30 10:12:47;;;;;;;;;;;;;;;22.26;80.13;98708.66;4969993;28;19925;-74
2023/08/30 10:15:12;;;;;;;;;;;;;;;22.32;83.01;98706.88;4970335;28;20008;-73
2023/08/30 10:17:41;;;;;;;;;;;;;;;22.35;83.02;98701.84;4970610;28;19926;-74
2023/08/30 10:20:06;;;;;;;;;;;;;;;22.39;83.90;98703.00;4970878;28;20442;-74
2023/08/30 10:22:34;;;;;;;;;;;;;;;22.45;83.20;98699.34;4971025;28;19930;-74
2023/08/30 10:25:02;;;;;;;;;;;;;;;22.48;81.13;98699.94;4969579;28;20016;-74
2023/08/30 10:27:29;;;;;;;;;;;;;;;22.51;78.04;98697.56;4971280;28;19933;-74
2023/08/30 10:29:55;;;;;;;;;;;;;;;22.55;78.81;98697.91;4971427;28;19922;-72
2023/08/30 10:32:23;;;;;;;;;;;;;;;22.61;77.34;98694.28;4974762;28;19929;-72
2023/08/30 10:34:49;;;;;;;;;;;;;;;22.65;78.61;98687.34;4974865;28;19929;-74
2023/08/30 10:37:15;;;;;;;;;;;;;;;22.71;74.45;98697.94;4974666;28;19922;-73
2023/08/30 10:39:41;;;;;;;;;;;;;;;22.77;74.78;98693.50;4974494;28;19922;-73
2023/08/30 10:42:10;;;;;;;;;;;;;;;22.80;71.96;98693.00;4974598;28;19941;-74
2023/08/30 10:44:48;;;;;;;;;;;;;;;22.84;74.89;98691.50;4975106;28;19976;-74
2023/08/30 10:47:22;;;;;;;;;;;;;;;22.81;74.54;98689.28;4969802;28;19980;-74
2023/08/30 10:49:48;;;;;;;;;;;;;;;22.82;76.76;98685.53;4982341;28;19926;-73
2023/08/30 10:52:13;;;;;;;;;;;;;;;22.88;76.17;98687.25;4974325;28;19928;-73
2023/08/30 10:54:39;;;;;;;;;;;;;;;22.91;77.69;98684.09;4974909;28;20005;-73
2023/08/30 10:57:04;;;;;;;;;;;;;;;22.95;78.59;98685.22;4972955;28;19928;-72
2023/08/30 10:59:30;;;;;;;;;;;;;;;22.97;78.59;98675.03;4974478;28;19929;-73
2023/08/30 11:01:55;;;;;;;;;;;;;;;23.02;78.69;98677.81;4973375;28;20347;-74
2023/08/30 11:04:24;;;;;;;;;;;;;;;23.05;78.17;98669.25;4974134;28;19937;-74
2023/08/30 11:06:50;;;;;;;;;;;;;;;23.07;79.25;98677.91;4973826;28;19976;-74
2023/08/30 11:09:19;;;;;;;;;;;;;;;23.11;73.17;98676.34;4973722;28;19922;-75
2023/08/30 11:11:45;;;;;;;;;;;;;;;23.15;74.61;98672.09;4971796;28;19922;-75
2023/08/30 11:14:11;;;;;;;;;;;;;;;23.18;75.50;98679.69;4973966;28;19926;-72
2023/08/30 11:16:37;;;;;;;;;;;;;;;23.21;75.55;98672.97;4971615;28;20332;-74
2023/08/30 11:19:03;;;;;;;;;;;;;;;23.25;76.98;98674.97;4972857;28;19929;-74
2023/08/30 11:21:32;;;;;;;;;;;;;;;23.27;77.70;98675.50;4973978;28;19918;-74
2023/08/30 11:23:58;;;;;;;;;;;;;;;23.31;77.14;98666.97;4284724;28;10000736;-74
2023/08/30 11:26:23;;;;;;;;;;;;;;;23.39;78.60;98674.59;4970924;28;20324;-74
2023/08/30 11:28:51;;;;;;;;;;;;;;;23.44;79.16;98669.31;4971237;28;19934;-73
2023/08/30 11:31:22;;;;;;;;;;;;;;;23.49;80.25;98672.09;4971529;28;19926;-73
2023/08/30 11:33:51;;;;;;;;;;;;;;;23.53;80.41;98659.75;4971590;28;19926;-73
2023/08/30 11:36:17;;;;;;;;;;;;;;;23.60;80.74;98663.09;4970605;28;19929;-74
2023/08/30 11:38:43;;;;;;;;;;;;;;;23.65;79.47;98655.09;4969048;28;19922;-73
2023/08/30 11:41:09;;;;;;;;;;;;;;;23.70;81.43;98655.16;4966888;28;20005;-74
2023/08/30 11:43:34;;;;;;;;;;;;;;;23.78;80.09;98654.72;4970413;28;19923;-75
2023/08/30 11:46:00;;;;;;;;;;;;;;;23.89;78.92;98659.19;4970780;28;19930;-73
2023/08/30 11:48:26;;;;;;;;;;;;;;;23.99;76.92;98653.09;4971147;28;19926;-74
2023/08/30 11:50:52;;;;;;;;;;;;;;;24.06;78.59;98642.94;4970978;28;20307;-74
2023/08/30 11:53:18;;;;;;;;;;;;;;;24.16;77.28;98647.63;4970666;28;19933;-73
2023/08/30 11:55:43;;;;;;;;;;;;;;;24.26;77.26;98647.78;4626081;28;9999616;-74
2023/08/30 11:58:08;;;;;;;;;;;;;;;24.37;76.11;98650.34;4972205;28;19941;-73
2023/08/30 12:00:35;;;;;;;;;;;;;;;24.50;77.13;98649.13;4973567;28;20021;-72
2023/08/30 12:03:00;;;;;;;;;;;;;;;24.67;77.13;98649.84;4973142;28;19933;-73
2023/08/30 12:05:25;;;;;;;;;;;;;;;24.85;74.90;98641.38;4973331;28;19922;-74
2023/08/30 12:07:51;;;;;;;;;;;;;;;25.03;73.04;98640.19;4973184;28;19926;-73
2023/08/30 12:10:18;;;;;;;;;;;;;;;25.23;72.95;98642.22;4973134;28;19972;-74
2023/08/30 12:12:46;;;;;;;;;;;;;;;25.27;67.43;98633.31;4972771;28;20025;-73
2023/08/30 12:15:14;;;;;;;;;;;;;;;25.45;68.77;98633.97;4969036;28;19928;-73
2023/08/30 12:17:39;;;;;;;;;;;;;;;25.55;65.52;98640.28;4972918;28;19922;-74
2023/08/30 12:20:06;;;;;;;;;;;;;;;25.64;63.86;98649.53;4972723;28;20016;-74
2023/08/30 12:22:41;;;;;;;;;;;;;;;25.76;64.15;98637.69;4971861;28;20471;-74
2023/08/30 12:25:19;;;;;;;;;;;;;;;25.86;62.28;98646.66;4972102;28;19929;-73
2023/08/30 12:27:45;;;;;;;;;;;;;;;25.90;60.01;98641.56;4968512;28;19930;-74
2023/08/30 12:30:10;;;;;;;;;;;;;;;25.69;55.78;98636.03;4969039;28;19989;-73
2023/08/30 12:32:36;;;;;;;;;;;;;;;25.71;56.22;98633.09;4972771;28;20290;-73
2023/08/30 12:35:01;;;;;;;;;;;;;;;25.86;57.23;98635.06;4971613;28;19929;-72
2023/08/30 12:37:26;;;;;;;;;;;;;;;26.04;58.58;98623.75;4972498;28;19937;-73